Time;durP1;ratioP1;P1;durP2;ratioP2;P2;SDS_P1;SDS_P2;PMS_P1;PMS_P2;Temp;Humidity;BMP_temperature;BMP_pressure;BME280_temperature;BME280_humidity;BME280_pressure;Samples;Min_cycle;Max_cycle;Signal;HPM_P1;HPM_P2
2022/11/02 00:00:44;;;;;;;1.10;1.10;;;9.10;99.90;;;;;;5108440;28;20624;-83
2022/11/02 00:03:11;;;;;;;2.40;1.17;;;9.60;99.90;;;;;;5090621;28;21039;-83
2022/11/02 00:05:38;;;;;;;3.03;0.97;;;9.10;99.90;;;;;;5103175;28;20616;-83
2022/11/02 00:08:05;;;;;;;0.70;0.70;;;9.00;99.90;;;;;;5105713;28;20740;-83
2022/11/02 00:10:33;;;;;;;5.63;1.10;;;9.10;99.90;;;;;;5089476;28;20652;-83
2022/11/02 00:13:00;;;;;;;0.70;0.70;;;9.10;99.90;;;;;;5100375;28;20664;-83
2022/11/02 00:15:31;;;;;;;1.73;1.20;;;9.00;99.90;;;;;;5094161;28;20625;-83
2022/11/02 00:18:01;;;;;;;0.90;0.80;;;9.00;99.90;;;;;;5106315;28;20750;-83
2022/11/02 00:20:28;;;;;;;0.80;0.80;;;9.00;99.90;;;;;;5109503;28;20623;-82
2022/11/02 00:22:58;;;;;;;1.30;1.20;;;9.00;99.90;;;;;;5099895;28;20700;-82
2022/11/02 00:25:26;;;;;;;1.63;1.53;;;9.10;99.90;;;;;;5109716;28;20672;-82
2022/11/02 00:27:54;;;;;;;1.50;1.40;;;9.10;99.90;;;;;;5108243;28;20631;-82
2022/11/02 00:30:21;;;;;;;2.23;1.90;;;9.00;99.90;;;;;;5109397;28;20690;-82
2022/11/02 00:32:48;;;;;;;0.90;0.90;;;9.00;99.90;;;;;;5097846;28;20613;-82
2022/11/02 00:35:15;;;;;;;4.30;1.00;;;9.00;99.90;;;;;;5096254;28;20785;-83
2022/11/02 00:37:42;;;;;;;2.53;1.10;;;9.10;99.90;;;;;;5094053;28;20680;-83
2022/11/02 00:40:10;;;;;;;6.77;1.73;;;9.20;99.90;;;;;;5108831;28;20673;-83
2022/11/02 00:42:37;;;;;;;1.20;1.10;;;9.30;99.90;;;;;;5104282;28;20623;-83
2022/11/02 00:45:06;;;;;;;1.30;1.20;;;9.30;99.90;;;;;;5109603;28;20611;-82
2022/11/02 00:47:34;;;;;;;1.50;0.70;;;9.30;99.90;;;;;;5106930;28;20680;-82
2022/11/02 00:50:01;;;;;;;1.10;0.80;;;9.30;99.90;;;;;;5106904;28;20626;-82
2022/11/02 00:52:27;;;;;;;1.83;1.00;;;9.20;99.90;;;;;;5088448;28;20736;-82
2022/11/02 00:54:54;;;;;;;0.70;0.70;;;9.20;99.90;;;;;;5094296;28;20648;-83
2022/11/02 00:57:21;;;;;;;0.77;0.77;;;9.20;99.90;;;;;;5100797;28;20749;-82
2022/11/02 00:59:48;;;;;;;0.80;0.80;;;;;;;;;;5100828;28;20719;-83
2022/11/02 01:02:16;;;;;;;1.33;1.23;;;9.20;99.90;;;;;;5107261;28;20712;-83
2022/11/02 01:04:43;;;;;;;1.00;0.73;;;9.30;99.90;;;;;;5104414;28;21257;-83
2022/11/02 01:07:10;;;;;;;3.93;0.90;;;9.30;99.90;;;;;;5093405;28;20620;-83
2022/11/02 01:09:37;;;;;;;0.60;0.60;;;9.10;99.90;;;;;;5093259;28;20705;-83
2022/11/02 01:12:05;;;;;;;1.10;1.10;;;9.20;99.90;;;;;;5102063;28;20769;-82
2022/11/02 01:14:32;;;;;;;0.50;0.50;;;9.30;99.90;;;;;;5101157;28;21070;-82
2022/11/02 01:16:59;;;;;;;2.00;1.23;;;9.20;99.90;;;;;;5099895;28;21186;-82
2022/11/02 01:19:28;;;;;;;0.97;0.90;;;9.30;99.90;;;;;;5100900;28;20690;-83
2022/11/02 01:21:54;;;;;;;1.43;0.90;;;9.30;99.90;;;;;;5091773;28;20680;-82
2022/11/02 01:24:21;;;;;;;1.80;0.63;;;9.30;99.90;;;;;;5101241;28;20601;-83
2022/11/02 01:26:50;;;;;;;0.80;0.67;;;9.30;99.90;;;;;;5090758;28;20727;-82
2022/11/02 01:29:17;;;;;;;0.67;0.67;;;9.20;99.90;;;;;;5089416;28;20624;-83
2022/11/02 01:31:44;;;;;;;2.47;1.27;;;9.30;99.90;;;;;;5090222;28;20640;-82
2022/11/02 01:34:12;;;;;;;1.00;0.90;;;9.30;99.90;;;;;;5097036;28;20625;-83
2022/11/02 01:36:40;;;;;;;0.80;0.80;;;9.30;99.90;;;;;;5088741;28;20683;-83
2022/11/02 01:39:07;;;;;;;0.70;0.70;;;9.30;99.90;;;;;;5108360;28;21605;-83
2022/11/02 01:41:34;;;;;;;1.03;0.70;;;9.40;99.90;;;;;;5108377;28;21165;-83
2022/11/02 01:44:03;;;;;;;1.37;1.23;;;9.40;99.90;;;;;;5108512;28;20647;-83
2022/11/02 01:46:37;;;;;;;0.53;0.53;;;9.40;99.90;;;;;;5102883;28;20648;-83
2022/11/02 01:49:08;;;;;;;0.40;0.37;;;9.40;99.90;;;;;;5099602;28;20619;-83
2022/11/02 01:51:38;;;;;;;0.83;0.50;;;9.30;99.90;;;;;;5111419;28;20635;-83
2022/11/02 01:54:15;;;;;;;0.77;0.77;;;9.30;99.90;;;;;;5092160;28;20631;-82
2022/11/02 01:56:46;;;;;;;3.90;1.37;;;9.40;99.90;;;;;;5096588;28;21126;-83
2022/11/02 01:59:17;;;;;;;2.00;1.00;;;9.50;99.90;;;;;;5112221;28;20600;-82
2022/11/02 02:01:44;;;;;;;0.73;0.63;;;9.50;99.90;;;;;;5110248;28;20663;-82
2022/11/02 02:04:12;;;;;;;1.13;1.03;;;9.60;99.90;;;;;;5110896;28;20615;-82
2022/11/02 02:06:40;;;;;;;1.60;1.07;;;9.50;99.90;;;;;;5105381;28;20648;-82
2022/11/02 02:09:09;;;;;;;1.23;0.70;;;10.00;99.90;;;;;;5108294;28;21193;-83
2022/11/02 02:11:38;;;;;;;1.27;1.17;;;9.70;99.90;;;;;;5096280;28;20623;-82
2022/11/02 02:14:08;;;;;;;1.40;0.97;;;9.70;99.90;;;;;;5091229;28;20620;-82
2022/11/02 02:16:47;;;;;;;1.03;0.93;;;9.60;99.90;;;;;;5105000;28;20631;-83
2022/11/02 02:19:27;;;;;;;0.70;0.70;;;9.70;99.90;;;;;;5102060;28;21208;-83
2022/11/02 02:22:11;;;;;;;1.27;1.07;;;9.70;99.90;;;;;;5092262;28;21370;-83
2022/11/02 02:24:51;;;;;;;1.73;1.27;;;9.70;99.90;;;;;;5093372;28;20627;-83
2022/11/02 02:27:23;;;;;;;1.30;1.20;;;9.80;99.90;;;;;;5093455;28;20666;-83
2022/11/02 02:30:03;;;;;;;1.17;1.03;;;9.70;99.90;;;;;;5091174;28;20647;-83
2022/11/02 02:32:39;;;;;;;3.10;1.27;;;9.80;99.90;;;;;;5094276;28;20675;-83
2022/11/02 02:35:15;;;;;;;0.97;0.87;;;9.80;99.90;;;;;;5110947;28;20630;-83
2022/11/02 02:37:51;;;;;;;1.73;1.20;;;9.80;99.90;;;;;;5097239;28;20660;-83
2022/11/02 02:40:22;;;;;;;6.23;1.00;;;9.80;99.90;;;;;;5090298;28;20608;-83
2022/11/02 02:42:54;;;;;;;0.83;0.83;;;9.80;99.90;;;;;;5096927;28;20624;-83
2022/11/02 02:45:29;;;;;;;1.20;0.80;;;9.80;99.90;;;;;;5110609;28;21233;-83
2022/11/02 02:48:00;;;;;;;0.50;0.50;;;9.80;99.90;;;;;;5109599;28;20615;-83
2022/11/02 02:50:33;;;;;;;1.47;1.10;;;9.70;99.90;;;;;;5108075;28;20624;-82
2022/11/02 02:53:05;;;;;;;0.80;0.80;;;9.80;99.90;;;;;;5090587;28;21069;-83
2022/11/02 02:55:40;;;;;;;1.50;1.13;;;9.70;99.90;;;;;;5092145;28;20664;-83
2022/11/02 02:58:12;;;;;;;1.10;1.00;;;9.80;99.90;;;;;;5094448;28;20655;-83
2022/11/02 03:00:41;;;;;;;1.20;1.10;;;9.80;99.90;;;;;;5105285;28;21048;-83
2022/11/02 03:03:15;;;;;;;0.93;0.83;;;9.80;99.90;;;;;;5097467;28;20638;-83
2022/11/02 03:05:42;;;;;;;1.00;1.00;;;9.80;99.90;;;;;;5108665;28;20654;-83
2022/11/02 03:08:13;;;;;;;1.90;1.80;;;9.90;99.90;;;;;;5106927;28;20627;-83
2022/11/02 03:10:46;;;;;;;1.23;0.90;;;9.80;99.90;;;;;;5109986;28;20627;-82
2022/11/02 03:13:39;;;;;;;4.77;1.00;;;9.80;99.90;;;;;;5094708;28;20660;-82
2022/11/02 03:16:18;;;;;;;1.30;1.20;;;9.90;99.90;;;;;;5093058;28;20631;-82
2022/11/02 03:18:49;;;;;;;1.00;1.00;;;9.80;99.90;;;;;;5104689;28;20660;-82
2022/11/02 03:21:25;;;;;;;1.43;0.90;;;9.80;99.90;;;;;;5105992;28;20631;-82
2022/11/02 03:23:58;;;;;;;1.33;0.93;;;9.80;99.90;;;;;;5109982;28;20619;-82
2022/11/02 03:26:30;;;;;;;1.93;1.30;;;9.80;99.90;;;;;;5108126;28;20623;-82
2022/11/02 03:29:04;;;;;;;1.07;0.87;;;9.80;99.90;;;;;;5095122;28;20628;-82
2022/11/02 03:31:40;;;;;;;2.20;0.83;;;9.80;99.90;;;;;;5108093;28;20628;-82
2022/11/02 03:34:18;;;;;;;0.73;0.73;;;9.90;99.90;;;;;;5095307;28;20724;-82
2022/11/02 03:36:51;;;;;;;0.70;0.67;;;9.90;99.90;;;;;;5092544;28;21193;-82
2022/11/02 03:39:22;;;;;;;1.00;0.77;;;9.90;99.90;;;;;;5109324;28;21211;-82
2022/11/02 03:41:51;;;;;;;1.03;1.03;;;9.90;99.90;;;;;;5093032;28;20740;-82
2022/11/02 03:44:22;;;;;;;0.80;0.80;;;9.90;99.90;;;;;;5096264;28;20681;-82
2022/11/02 03:46:57;;;;;;;2.50;1.40;;;9.90;99.90;;;;;;5107736;28;21270;-82
2022/11/02 03:49:26;;;;;;;1.23;1.13;;;9.90;99.90;;;;;;5109284;28;20611;-82
2022/11/02 03:51:56;;;;;;;7.97;1.07;;;9.90;99.90;;;;;;5102213;28;20620;-82
2022/11/02 03:54:34;;;;;;;1.17;0.60;;;9.90;99.90;;;;;;5088651;28;21362;-82
2022/11/02 03:57:04;;;;;;;2.00;1.17;;;9.90;99.90;;;;;;5095457;28;21204;-82
2022/11/02 03:59:31;;;;;;;1.17;1.17;;;9.60;99.90;;;;;;5108939;28;21338;-82
2022/11/02 04:02:01;;;;;;;1.03;0.80;;;9.90;99.90;;;;;;5108350;28;21216;-82
2022/11/02 04:04:28;;;;;;;1.37;0.80;;;9.90;99.90;;;;;;5108726;28;20956;-82
2022/11/02 04:06:56;;;;;;;2.20;1.10;;;9.90;99.90;;;;;;5102249;28;20656;-82
2022/11/02 04:09:23;;;;;;;0.90;0.87;;;9.80;99.90;;;;;;5096795;28;20954;-82
2022/11/02 04:14:40;;;;;;;0.70;0.70;;;9.80;99.90;;;;;;5089184;28;20628;-82
2022/11/02 04:19:57;;;;;;;0.90;0.73;;;9.90;99.90;;;;;;5088687;28;20596;-82
2022/11/02 04:25:20;;;;;;;0.70;0.40;;;10.20;99.90;;;;;;5107380;28;21177;-84
2022/11/02 04:27:49;;;;;;;1.47;1.37;;;9.80;99.90;;;;;;5096688;28;20730;-82
2022/11/02 04:30:18;;;;;;;2.07;1.90;;;9.80;99.90;;;;;;5087982;28;20674;-81
2022/11/02 04:35:33;;;;;;;0.70;0.67;;;9.80;99.90;;;;;;5089692;28;20716;-83
2022/11/02 04:40:45;;;;;;;0.67;0.63;;;9.80;99.90;;;;;;5087848;28;20605;-82
2022/11/02 04:43:12;;;;;;;4.57;0.90;;;9.90;99.90;;;;;;5101690;28;20628;-82
2022/11/02 04:45:39;;;;;;;1.70;0.97;;;9.90;99.90;;;;;;5090311;28;20750;-83
2022/11/02 04:48:09;;;;;;;0.60;0.50;;;9.70;99.90;;;;;;5092695;28;20733;-82
2022/11/02 04:50:37;;;;;;;0.70;0.60;;;9.80;99.90;;;;;;5094495;28;20655;-82
2022/11/02 04:53:06;;;;;;;0.90;0.73;;;9.80;99.90;;;;;;5107609;28;20624;-82
2022/11/02 04:55:33;;;;;;;4.43;1.70;;;10.50;99.90;;;;;;5092690;28;20704;-82
2022/11/02 04:58:00;;;;;;;5.43;0.70;;;9.70;99.90;;;;;;5099654;28;20751;-82
2022/11/02 05:00:27;;;;;;;6.07;0.90;;;9.70;99.90;;;;;;5107619;28;20627;-83
2022/11/02 05:02:54;;;;;;;0.50;0.50;;;9.60;99.90;;;;;;5107594;28;20615;-82
2022/11/02 05:05:22;;;;;;;0.87;0.80;;;9.60;99.90;;;;;;5101980;28;20666;-83
2022/11/02 05:07:49;;;;;;;0.60;0.60;;;9.60;99.90;;;;;;5093633;28;20721;-82
2022/11/02 05:10:16;;;;;;;4.63;0.90;;;9.60;99.90;;;;;;5102997;28;20648;-82
2022/11/02 05:12:43;;;;;;;0.70;0.70;;;9.70;99.90;;;;;;5108641;28;20623;-82
2022/11/02 05:15:10;;;;;;;0.57;0.57;;;9.60;99.90;;;;;;5095755;28;20624;-83
2022/11/02 05:17:37;;;;;;;0.93;0.73;;;9.60;99.90;;;;;;5104309;28;20655;-82
2022/11/02 05:20:04;;;;;;;0.60;0.60;;;9.70;99.90;;;;;;5109057;28;21021;-82
2022/11/02 05:22:33;;;;;;;1.70;1.27;;;9.70;99.90;;;;;;5107460;28;20645;-83
2022/11/02 05:24:59;;;;;;;0.97;0.73;;;9.70;99.90;;;;;;5109188;28;20652;-82
2022/11/02 05:27:26;;;;;;;6.40;1.63;;;9.70;99.90;;;;;;5100443;28;20643;-83
2022/11/02 05:29:53;;;;;;;1.53;1.00;;;9.70;99.90;;;;;;5105512;28;20619;-82
2022/11/02 05:32:20;;;;;;;1.40;1.30;;;10.00;99.90;;;;;;5108291;28;20689;-82
2022/11/02 05:34:47;;;;;;;0.80;0.80;;;9.70;99.90;;;;;;5101049;28;20652;-82
2022/11/02 05:37:14;;;;;;;1.37;0.73;;;9.70;99.90;;;;;;5095485;28;20628;-82
2022/11/02 05:39:42;;;;;;;2.87;0.93;;;9.60;99.90;;;;;;5098752;28;20612;-84
2022/11/02 05:42:09;;;;;;;1.43;1.33;;;9.70;99.90;;;;;;5096026;28;20663;-84
2022/11/02 05:44:36;;;;;;;0.53;0.43;;;9.70;99.90;;;;;;5103345;28;20631;-85
2022/11/02 05:47:03;;;;;;;1.90;0.83;;;9.70;99.90;;;;;;5105594;28;20666;-84
2022/11/02 05:49:30;;;;;;;0.97;0.50;;;9.70;99.90;;;;;;5100724;28;20656;-84
2022/11/02 05:51:58;;;;;;;1.13;0.97;;;9.70;99.90;;;;;;5088083;28;21248;-83
2022/11/02 05:54:25;;;;;;;0.70;0.70;;;9.70;99.90;;;;;;5103307;28;20639;-83
2022/11/02 05:56:53;;;;;;;1.30;1.20;;;9.80;99.90;;;;;;5100563;28;20628;-83
2022/11/02 05:59:20;;;;;;;1.97;1.53;;;9.70;99.90;;;;;;5099529;28;20791;-83
2022/11/02 06:01:47;;;;;;;0.70;0.70;;;9.70;99.90;;;;;;5106997;28;20635;-83
2022/11/02 06:04:14;;;;;;;0.60;0.60;;;10.50;99.90;;;;;;5095161;28;20652;-83
2022/11/02 06:06:41;;;;;;;0.80;0.73;;;9.80;99.90;;;;;;5090724;28;20619;-83
2022/11/02 06:09:08;;;;;;;2.40;0.87;;;9.70;99.90;;;;;;5099908;28;20613;-83
2022/11/02 06:11:35;;;;;;;1.37;1.00;;;9.70;99.90;;;;;;5095074;28;20655;-82
2022/11/02 06:14:03;;;;;;;1.60;1.10;;;9.60;99.90;;;;;;5096683;28;20740;-83
2022/11/02 06:16:30;;;;;;;2.50;1.20;;;9.60;99.90;;;;;;5106486;28;20724;-83
2022/11/02 06:18:57;;;;;;;1.23;0.70;;;9.50;99.90;;;;;;5107526;28;20689;-83
2022/11/02 06:21:24;;;;;;;0.40;0.40;;;9.50;99.90;;;;;;5107235;28;20693;-83
2022/11/02 06:23:51;;;;;;;0.70;0.70;;;9.40;99.90;;;;;;5107732;28;20727;-84
2022/11/02 06:26:18;;;;;;;1.03;0.80;;;9.50;99.90;;;;;;5107022;28;20608;-83
2022/11/02 06:28:45;;;;;;;0.50;0.50;;;9.40;99.90;;;;;;5098591;28;20624;-83
2022/11/02 06:31:16;;;;;;;0.70;0.53;;;9.40;99.90;;;;;;5087534;28;21106;-83
2022/11/02 06:33:43;;;;;;;1.60;0.90;;;9.40;99.90;;;;;;5098194;28;20988;-83
2022/11/02 06:36:10;;;;;;;0.67;0.60;;;9.40;99.90;;;;;;5089572;28;20999;-83
2022/11/02 06:38:38;;;;;;;1.67;0.80;;;9.40;99.90;;;;;;5089712;28;20683;-83
2022/11/02 06:41:05;;;;;;;0.53;0.53;;;9.40;99.90;;;;;;5091373;28;20736;-83
2022/11/02 06:43:33;;;;;;;2.57;1.20;;;9.50;99.90;;;;;;5090089;28;20604;-83
2022/11/02 06:46:00;;;;;;;3.27;0.83;;;9.50;99.90;;;;;;5091188;28;20620;-83
2022/11/02 06:48:28;;;;;;;0.70;0.70;;;9.70;99.90;;;;;;5090443;28;20623;-83
2022/11/02 06:50:56;;;;;;;0.97;0.87;;;9.70;99.90;;;;;;5090391;28;20759;-84
2022/11/02 06:53:23;;;;;;;2.07;1.17;;;9.80;99.90;;;;;;5090549;28;21559;-83
2022/11/02 06:55:54;;;;;;;3.40;1.00;;;9.90;99.90;;;;;;5090054;28;20681;-83
2022/11/02 06:58:22;;;;;;;0.50;0.50;;;10.00;99.90;;;;;;5090950;28;20745;-83
2022/11/02 07:00:49;;;;;;;0.57;0.47;;;10.00;99.90;;;;;;5110422;28;20767;-83
2022/11/02 07:03:16;;;;;;;0.70;0.70;;;10.10;99.90;;;;;;5110475;28;20714;-83
2022/11/02 07:05:49;;;;;;;2.63;0.93;;;10.20;99.90;;;;;;5109769;28;20888;-83
2022/11/02 07:08:16;;;;;;;1.00;0.70;;;9.90;99.90;;;;;;5110115;28;20619;-83
2022/11/02 07:10:43;;;;;;;1.27;1.07;;;10.30;99.90;;;;;;5110321;28;20679;-83
2022/11/02 07:13:10;;;;;;;2.00;0.90;;;10.30;99.90;;;;;;5110690;28;20612;-83
2022/11/02 07:15:38;;;;;;;0.60;0.60;;;10.30;99.90;;;;;;5109762;28;21185;-83
2022/11/02 07:18:07;;;;;;;1.23;1.13;;;10.40;99.90;;;;;;5108350;28;20675;-83
2022/11/02 07:20:34;;;;;;;3.53;1.40;;;10.30;99.90;;;;;;5109615;28;20620;-83
2022/11/02 07:23:03;;;;;;;1.73;0.63;;;10.40;99.90;;;;;;5110381;27;20693;-83
2022/11/02 07:25:32;;;;;;;0.60;0.50;;;10.50;99.90;;;;;;5110300;28;20620;-84
2022/11/02 07:27:59;;;;;;;0.60;0.60;;;10.40;99.90;;;;;;5110330;28;21386;-83
2022/11/02 07:30:26;;;;;;;0.70;0.70;;;10.60;99.90;;;;;;5110452;27;21003;-83
2022/11/02 07:32:53;;;;;;;2.20;1.90;;;10.60;99.90;;;;;;5109932;28;21177;-82
2022/11/02 07:35:20;;;;;;;0.57;0.57;;;10.60;99.90;;;;;;5110007;28;20600;-83
2022/11/02 07:37:55;;;;;;;2.67;0.60;;;10.80;99.90;;;;;;5110333;28;20654;-83
2022/11/02 07:40:24;;;;;;;0.40;0.40;;;10.70;99.90;;;;;;5110258;28;21234;-83
2022/11/02 07:42:52;;;;;;;1.07;1.00;;;10.80;99.90;;;;;;5109963;28;20631;-83
2022/11/02 07:45:19;;;;;;;0.60;0.50;;;10.80;99.90;;;;;;5108967;28;20626;-83
2022/11/02 07:47:47;;;;;;;1.50;1.10;;;10.90;99.90;;;;;;5109861;28;20643;-82
2022/11/02 07:50:16;;;;;;;0.50;0.50;;;10.90;99.90;;;;;;5109676;28;21235;-82
2022/11/02 07:52:45;;;;;;;0.90;0.70;;;10.90;99.90;;;;;;5109720;28;20623;-82
2022/11/02 07:55:13;;;;;;;1.13;0.87;;;11.00;99.90;;;;;;5109534;28;20627;-82
2022/11/02 07:57:42;;;;;;;0.70;0.67;;;11.10;99.90;;;;;;5108794;28;21007;-82
2022/11/02 08:00:10;;;;;;;1.33;0.83;;;11.10;99.90;;;;;;5109581;28;20780;-82
2022/11/02 08:02:37;;;;;;;1.73;1.60;;;11.10;99.90;;;;;;5109385;28;20616;-82
2022/11/02 08:05:05;;;;;;;0.60;0.60;;;11.20;99.90;;;;;;5109620;28;20655;-82
2022/11/02 08:07:32;;;;;;;1.13;0.87;;;11.20;99.90;;;;;;5109055;28;21012;-82
2022/11/02 08:09:59;;;;;;;2.00;1.17;;;11.30;99.90;;;;;;5109417;28;21089;-82
2022/11/02 08:12:26;;;;;;;0.90;0.87;;;11.40;99.90;;;;;;5108982;28;20647;-82
2022/11/02 08:14:55;;;;;;;3.40;0.77;;;12.30;99.90;;;;;;5099207;28;20609;-81
2022/11/02 08:17:23;;;;;;;1.17;1.00;;;11.60;99.90;;;;;;5102163;28;21204;-82
2022/11/02 08:19:50;;;;;;;0.53;0.53;;;11.70;99.90;;;;;;5109010;28;20756;-82
2022/11/02 08:22:16;;;;;;;0.60;0.60;;;11.70;99.90;;;;;;5109212;28;20634;-81
2022/11/02 08:24:43;;;;;;;2.97;0.97;;;11.80;99.90;;;;;;5108333;28;20620;-82
2022/11/02 08:27:10;;;;;;;1.00;0.90;;;11.90;99.90;;;;;;5109278;28;20631;-82
2022/11/02 08:29:37;;;;;;;0.50;0.50;;;;;;;;;;5109274;28;20722;-81
2022/11/02 08:32:06;;;;;;;0.43;0.33;;;12.00;99.90;;;;;;5109646;28;20719;-81
2022/11/02 08:34:33;;;;;;;3.23;0.83;;;12.10;99.90;;;;;;5109116;28;20619;-82
2022/11/02 08:37:00;;;;;;;1.60;1.50;;;12.10;99.90;;;;;;5111041;28;20701;-82
2022/11/02 08:39:26;;;;;;;0.77;0.77;;;12.20;99.90;;;;;;5110588;28;20659;-82
2022/11/02 08:41:53;;;;;;;1.27;0.70;;;12.30;99.90;;;;;;5110982;28;20604;-82
2022/11/02 08:44:20;;;;;;;1.10;0.63;;;12.30;99.90;;;;;;5110070;28;20614;-82
2022/11/02 08:46:47;;;;;;;2.70;1.27;;;12.40;99.90;;;;;;5110156;28;20655;-82
2022/11/02 08:49:17;;;;;;;0.97;0.97;;;12.40;99.90;;;;;;5112673;28;20673;-82
2022/11/02 08:51:44;;;;;;;0.50;0.50;;;12.50;99.90;;;;;;5110403;28;20620;-84
2022/11/02 08:54:11;;;;;;;1.13;1.03;;;12.60;99.90;;;;;;5110316;28;20730;-82
2022/11/02 08:56:38;;;;;;;0.40;0.40;;;12.60;99.90;;;;;;5109969;28;21490;-82
2022/11/02 08:59:05;;;;;;;0.70;0.50;;;12.80;99.90;;;;;;5111306;28;20756;-82
2022/11/02 09:01:32;;;;;;;0.90;0.87;;;12.80;99.90;;;;;;5111341;28;20669;-82
2022/11/02 09:03:59;;;;;;;0.60;0.60;;;12.70;99.90;;;;;;5111806;28;21219;-82
2022/11/02 09:06:27;;;;;;;1.10;0.77;;;12.70;99.90;;;;;;5110361;28;20677;-81
2022/11/02 09:08:54;;;;;;;0.70;0.50;;;12.70;99.90;;;;;;5112783;28;20612;-82
2022/11/02 09:11:21;;;;;;;0.40;0.30;;;12.70;99.90;;;;;;5112159;28;20592;-82
2022/11/02 09:13:48;;;;;;;2.23;1.03;;;12.70;99.90;;;;;;5111152;28;20612;-82
2022/11/02 09:16:30;;;;;;;0.60;0.60;;;12.70;99.90;;;;;;5142828;27;20749;-82
2022/11/02 09:18:57;;;;;;;0.50;0.40;;;12.90;99.90;;;;;;5150887;27;20657;-82
2022/11/02 09:21:25;;;;;;;0.40;0.30;;;12.90;99.90;;;;;;5151099;27;20657;-82
2022/11/02 09:23:52;;;;;;;0.73;0.73;;;12.90;99.90;;;;;;5149961;27;20610;-83
2022/11/02 09:26:19;;;;;;;0.77;0.60;;;12.90;99.90;;;;;;5150058;27;20627;-83
2022/11/02 09:28:46;;;;;;;0.63;0.60;;;12.90;99.90;;;;;;5150695;27;20666;-82
2022/11/02 09:31:12;;;;;;;0.40;0.30;;;12.90;99.90;;;;;;5149658;27;20606;-82
2022/11/02 09:33:41;;;;;;;0.83;0.77;;;13.00;99.90;;;;;;5148499;27;20694;-82
2022/11/02 09:36:08;;;;;;;1.43;0.63;;;12.90;99.90;;;;;;5145514;27;20653;-83
2022/11/02 09:38:35;;;;;;;1.03;0.80;;;13.00;99.90;;;;;;5147538;27;21039;-82
2022/11/02 09:41:12;;;;;;;1.67;0.97;;;13.00;99.90;;;;;;5148023;27;21246;-83
2022/11/02 09:43:58;;;;;;;1.20;0.60;;;13.10;99.90;;;;;;5147106;27;21288;-83
2022/11/02 09:46:27;;;;;;;0.97;0.50;;;13.10;99.90;;;;;;5146165;27;20621;-82
2022/11/02 09:48:59;;;;;;;0.40;0.33;;;13.20;99.90;;;;;;5146481;27;20667;-82
2022/11/02 09:51:28;;;;;;;1.27;0.50;;;13.20;99.60;;;;;;5146761;27;20606;-82
2022/11/02 09:54:05;;;;;;;1.47;0.70;;;13.20;99.90;;;;;;5145707;27;20719;-82
2022/11/02 09:56:33;;;;;;;1.37;0.67;;;13.20;99.80;;;;;;5144808;27;20846;-82
2022/11/02 09:59:03;;;;;;;0.50;0.50;;;13.20;98.80;;;;;;5145763;27;20614;-82
2022/11/02 10:02:01;;;;;;;0.70;0.57;;;13.20;99.60;;;;;;5145870;27;21237;-83
2022/11/02 10:04:47;;;;;;;0.60;0.40;;;13.30;99.90;;;;;;5146743;27;20653;-82
2022/11/02 10:07:24;;;;;;;0.60;0.60;;;13.30;99.40;;;;;;5146008;27;20614;-82
2022/11/02 10:09:55;;;;;;;1.00;0.57;;;13.30;99.10;;;;;;5146739;27;21163;-82
2022/11/02 10:12:30;;;;;;;0.40;0.40;;;13.30;99.20;;;;;;5146037;27;20935;-82
2022/11/02 10:15:02;;;;;;;0.77;0.77;;;13.30;98.20;;;;;;5145764;27;20696;-82
2022/11/02 10:17:34;;;;;;;0.83;0.83;;;13.30;98.80;;;;;;5145560;27;21193;-82
2022/11/02 10:20:06;;;;;;;0.70;0.60;;;12.80;99.10;;;;;;5146355;27;20621;-82
2022/11/02 10:22:37;;;;;;;0.30;0.20;;;13.40;98.70;;;;;;5145578;27;20694;-82
2022/11/02 10:25:06;;;;;;;0.60;0.37;;;13.40;98.50;;;;;;5146203;27;20605;-82
2022/11/02 10:27:37;;;;;;;1.00;0.87;;;13.50;98.90;;;;;;5132951;27;20716;-83
2022/11/02 10:30:06;;;;;;;0.40;0.40;;;13.50;98.20;;;;;;5132493;27;20657;-82
2022/11/02 10:32:36;;;;;;;0.50;0.40;;;13.50;98.00;;;;;;5131511;27;20623;-82
2022/11/02 10:35:12;;;;;;;1.67;1.27;;;13.80;97.40;;;;;;5132089;27;20654;-83
2022/11/02 10:37:51;;;;;;;0.67;0.67;;;13.50;97.50;;;;;;5131074;27;20710;-83
2022/11/02 10:40:33;;;;;;;3.07;0.50;;;13.40;97.30;;;;;;5132354;27;20610;-83
2022/11/02 10:43:13;;;;;;;3.30;1.00;;;13.50;97.20;;;;;;5132429;27;20615;-83
2022/11/02 10:46:06;;;;;;;2.40;0.80;;;13.60;97.60;;;;;;5132011;27;21131;-81
2022/11/02 10:48:44;;;;;;;0.60;0.60;;;13.50;97.70;;;;;;5130860;27;20641;-82
2022/11/02 10:51:14;;;;;;;0.77;0.70;;;13.60;97.20;;;;;;5131812;27;21179;-81
2022/11/02 10:53:43;;;;;;;1.73;0.70;;;13.50;96.90;;;;;;5131540;27;21175;-81
2022/11/02 10:56:16;;;;;;;0.80;0.53;;;13.50;97.30;;;;;;5131856;27;20701;-81
2022/11/02 10:58:49;;;;;;;1.10;0.80;;;13.60;97.10;;;;;;5130896;27;20717;-82
2022/11/02 11:01:16;;;;;;;1.23;1.00;;;13.50;97.40;;;;;;5131685;27;20611;-81
2022/11/02 11:03:58;;;;;;;1.00;0.50;;;13.50;97.30;;;;;;5130976;27;20625;-82
2022/11/02 11:06:29;;;;;;;2.10;0.70;;;13.50;96.40;;;;;;5129985;27;20622;-82
2022/11/02 11:09:02;;;;;;;0.43;0.43;;;13.50;96.50;;;;;;5130742;27;21235;-82
2022/11/02 11:11:33;;;;;;;1.23;0.43;;;13.50;96.80;;;;;;5130553;27;20634;-84
2022/11/02 11:14:04;;;;;;;3.70;0.60;;;13.90;97.10;;;;;;5129588;27;20651;-81
2022/11/02 11:16:36;;;;;;;0.40;0.40;;;13.40;96.80;;;;;;5129130;27;20704;-82
2022/11/02 11:19:06;;;;;;;0.50;0.47;;;13.50;96.60;;;;;;5131343;27;20627;-82
2022/11/02 11:21:39;;;;;;;0.67;0.67;;;13.50;97.00;;;;;;5130508;27;20623;-81
2022/11/02 11:24:20;;;;;;;0.40;0.20;;;13.50;96.90;;;;;;5128759;27;20614;-81
2022/11/02 11:27:01;;;;;;;1.47;0.60;;;13.50;97.40;;;;;;5129671;27;20690;-82
2022/11/02 11:29:31;;;;;;;2.00;0.80;;;13.70;97.10;;;;;;5130182;27;20625;-82
2022/11/02 11:31:59;;;;;;;4.73;2.27;;;13.50;96.70;;;;;;5130952;27;20623;-82
2022/11/02 11:34:28;;;;;;;1.48;0.82;;;13.50;97.30;;;;;;5128959;27;20830;-82
2022/11/02 11:37:08;;;;;;;1.27;0.80;;;13.50;97.10;;;;;;5130705;27;20217;-82
2022/11/02 11:39:37;;;;;;;1.10;0.80;;;13.50;96.90;;;;;;5131726;27;20722;-82
2022/11/02 11:42:12;;;;;;;1.73;1.43;;;13.60;97.10;;;;;;5131821;27;20201;-82
2022/11/02 11:44:45;;;;;;;0.63;0.50;;;13.60;97.50;;;;;;5132736;27;20638;-83
2022/11/02 11:47:13;;;;;;;1.07;0.73;;;13.70;97.70;;;;;;5132780;27;20667;-82
2022/11/02 11:49:47;;;;;;;2.73;0.73;;;13.70;97.00;;;;;;5133069;27;20721;-82
2022/11/02 11:52:21;;;;;;;0.50;0.50;;;13.80;96.20;;;;;;5131236;27;20637;-82
2022/11/02 11:54:56;;;;;;;0.60;0.47;;;13.80;96.60;;;;;;5131316;27;21239;-82
2022/11/02 11:57:28;;;;;;;0.70;0.70;;;13.70;96.60;;;;;;5124195;27;20614;-82
2022/11/02 11:59:57;;;;;;;0.30;0.30;;;14.00;96.60;;;;;;5125603;27;21268;-82
2022/11/02 12:02:26;;;;;;;0.77;0.67;;;14.00;96.30;;;;;;5125019;27;20619;-82
2022/11/02 12:05:02;;;;;;;6.07;1.43;;;14.20;96.30;;;;;;5129137;27;20679;-82
2022/11/02 12:08:02;;;;;;;0.70;0.50;;;14.20;95.90;;;;;;5127990;27;20638;-83
2022/11/02 12:10:42;;;;;;;0.50;0.43;;;14.30;96.10;;;;;;5128384;27;21215;-83
2022/11/02 12:13:20;;;;;;;0.80;0.70;;;14.30;95.10;;;;;;5128636;27;20623;-85
2022/11/02 12:16:04;;;;;;;0.30;0.30;;;14.30;94.80;;;;;;5118722;27;21019;-82
2022/11/02 12:18:45;;;;;;;0.80;0.50;;;14.40;93.90;;;;;;5128470;27;20634;-82
2022/11/02 12:21:32;;;;;;;2.63;0.80;;;14.30;93.70;;;;;;5128962;27;20673;-82
2022/11/02 12:24:18;;;;;;;0.73;0.50;;;14.30;93.40;;;;;;5128379;27;20785;-82
2022/11/02 12:26:59;;;;;;;0.60;0.40;;;14.10;93.60;;;;;;5127658;27;20639;-82
2022/11/02 12:29:53;;;;;;;0.50;0.50;;;14.30;92.40;;;;;;5127518;27;20607;-82
2022/11/02 12:32:37;;;;;;;0.80;0.57;;;14.30;92.90;;;;;;5128708;27;20976;-82
2022/11/02 12:35:19;;;;;;;1.37;0.60;;;14.30;93.20;;;;;;5127129;27;20611;-83
2022/11/02 12:38:12;;;;;;;3.23;1.07;;;14.20;92.60;;;;;;5121623;27;20997;-82
2022/11/02 12:40:52;;;;;;;2.87;0.70;;;14.10;92.60;;;;;;5128351;27;20599;-82
2022/11/02 12:43:41;;;;;;;2.17;0.53;;;14.00;92.20;;;;;;5124341;27;21375;-83
2022/11/02 12:46:25;;;;;;;1.40;1.10;;;14.10;92.80;;;;;;5128312;27;20611;-83
2022/11/02 12:49:05;;;;;;;1.17;0.50;;;14.20;92.70;;;;;;5126792;27;20603;-83
2022/11/02 12:51:38;;;;;;;0.73;0.50;;;14.20;92.30;;;;;;5126863;27;20611;-83
2022/11/02 12:54:11;;;;;;;0.60;0.60;;;14.20;92.10;;;;;;5127540;27;20633;-83
2022/11/02 12:56:46;;;;;;;0.93;0.60;;;14.20;92.40;;;;;;5127233;27;21298;-83
2022/11/02 12:59:19;;;;;;;1.10;0.67;;;14.20;91.90;;;;;;5128311;27;21440;-83
2022/11/02 13:01:51;;;;;;;0.40;0.40;;;14.30;92.10;;;;;;5127318;27;20653;-84
2022/11/02 13:04:22;;;;;;;0.30;0.20;;;14.20;91.80;;;;;;5127552;27;20626;-84
2022/11/02 13:06:51;;;;;;;6.10;1.03;;;14.20;91.90;;;;;;5127519;27;20623;-83
2022/11/02 13:09:24;;;;;;;0.40;0.40;;;14.20;91.30;;;;;;5128134;27;21074;-82
2022/11/02 13:11:57;;;;;;;0.67;0.40;;;14.20;91.50;;;;;;5128441;27;20719;-83
2022/11/02 13:14:29;;;;;;;1.07;0.47;;;14.10;90.60;;;;;;5127596;27;20745;-83
2022/11/02 13:17:01;;;;;;;0.30;0.20;;;14.30;90.10;;;;;;5129361;28;20680;-82
2022/11/02 13:19:32;;;;;;;1.33;0.83;;;14.30;90.40;;;;;;5130660;28;20672;-83
2022/11/02 13:22:00;;;;;;;2.80;0.40;;;14.30;90.80;;;;;;5130630;27;20623;-84
2022/11/02 13:24:31;;;;;;;0.40;0.40;;;14.30;90.70;;;;;;5129946;27;21211;-84